Time;durP1;ratioP1;P1;durP2;ratioP2;P2;SDS_P1;SDS_P2;PMS_P1;PMS_P2;Temp;Humidity;BMP_temperature;BMP_pressure;BME280_temperature;BME280_humidity;BME280_pressure;Samples;Min_cycle;Max_cycle;Signal;HPM_P1;HPM_P2
2021/01/08 00:00:09;;;;;;;1.65;1.55;;;17.60;26.40;;;;;;5116734;28;20169;-62
2021/01/08 00:02:35;;;;;;;1.98;1.88;;;17.60;26.40;;;;;;5116515;28;20172;-62
2021/01/08 00:05:00;;;;;;;1.53;1.30;;;17.60;26.50;;;;;;5116731;28;20539;-62
2021/01/08 00:07:26;;;;;;;1.73;1.63;;;17.60;26.40;;;;;;5115856;28;20217;-62
2021/01/08 00:09:52;;;;;;;1.70;1.60;;;17.60;26.40;;;;;;5116559;28;20593;-62
2021/01/08 00:12:18;;;;;;;1.70;1.60;;;17.60;26.50;;;;;;5116231;28;20898;-62
2021/01/08 00:14:44;;;;;;;1.80;1.70;;;17.60;26.40;;;;;;5098175;28;20513;-62
2021/01/08 00:17:09;;;;;;;1.70;1.60;;;17.60;26.50;;;;;;5098093;28;20168;-62
2021/01/08 00:19:35;;;;;;;1.90;1.80;;;17.60;26.40;;;;;;5098137;28;20252;-62
2021/01/08 00:22:01;;;;;;;1.33;1.23;;;17.50;26.40;;;;;;5115943;28;20170;-62
2021/01/08 00:24:26;;;;;;;1.87;1.77;;;17.60;26.40;;;;;;5116507;28;20559;-62
2021/01/08 00:27:03;;;;;;;1.70;1.60;;;17.60;26.50;;;;;;5116052;28;20150;-62
2021/01/08 00:29:29;;;;;;;1.63;1.45;;;17.50;26.40;;;;;;5116382;28;20398;-62
2021/01/08 00:31:54;;;;;;;1.98;1.80;;;17.50;26.40;;;;;;5115920;28;20180;-61
2021/01/08 00:34:20;;;;;;;1.63;1.53;;;17.50;26.40;;;;;;5097729;28;20196;-61
2021/01/08 00:36:53;;;;;;;1.83;1.30;;;17.50;26.40;;;;;;5115919;28;20154;-61
2021/01/08 00:39:20;;;;;;;1.70;1.60;;;17.50;26.40;;;;;;5097740;28;20602;-62
2021/01/08 00:41:47;;;;;;;1.80;1.70;;;17.50;26.40;;;;;;5115953;28;20240;-62
2021/01/08 00:44:13;;;;;;;1.90;1.80;;;17.50;26.40;;;;;;5115709;28;20181;-61
2021/01/08 00:46:41;;;;;;;2.55;1.70;;;17.60;26.40;;;;;;5115691;28;20164;-61
2021/01/08 00:49:07;;;;;;;1.70;1.60;;;17.50;26.40;;;;;;5115855;28;20157;-62
2021/01/08 00:51:34;;;;;;;1.55;1.45;;;17.50;26.40;;;;;;5115769;28;20251;-62
2021/01/08 00:54:00;;;;;;;2.15;1.88;;;17.50;26.40;;;;;;5115096;28;20157;-62
2021/01/08 00:56:26;;;;;;;1.38;1.27;;;17.50;26.90;;;;;;5115722;28;20157;-62
2021/01/08 00:58:51;;;;;;;2.63;1.80;;;17.50;26.90;;;;;;5115587;28;20164;-62
2021/01/08 01:01:17;;;;;;;1.67;1.57;;;17.50;26.40;;;;;;5115481;28;20515;-61
2021/01/08 01:03:43;;;;;;;1.48;1.38;;;17.50;26.40;;;;;;5115315;28;20184;-62
2021/01/08 01:06:09;;;;;;;1.83;1.73;;;17.50;26.40;;;;;;5096485;28;20509;-61
2021/01/08 01:08:35;;;;;;;2.00;1.53;;;17.50;26.40;;;;;;5114698;28;20956;-62
2021/01/08 01:11:01;;;;;;;1.30;1.20;;;17.50;26.40;;;;;;5115419;28;20403;-62
2021/01/08 01:13:27;;;;;;;1.40;1.30;;;17.50;26.40;;;;;;5115398;28;20419;-62
2021/01/08 01:15:54;;;;;;;1.55;1.45;;;17.50;26.40;;;;;;5115218;28;20157;-62
2021/01/08 01:18:20;;;;;;;1.60;1.50;;;17.50;26.40;;;;;;5115296;28;20623;-62
2021/01/08 01:20:47;;;;;;;1.73;1.60;;;17.50;26.40;;;;;;5115127;28;20161;-62
2021/01/08 01:23:12;;;;;;;2.00;1.90;;;17.50;26.40;;;;;;5114625;28;20141;-62
2021/01/08 01:25:38;;;;;;;1.67;1.57;;;17.50;26.40;;;;;;5115120;28;20168;-62
2021/01/08 01:28:04;;;;;;;1.90;1.50;;;17.50;26.40;;;;;;5114851;28;20634;-62
2021/01/08 01:30:31;;;;;;;1.40;1.30;;;17.50;26.40;;;;;;5115250;28;20157;-62
2021/01/08 01:32:58;;;;;;;2.08;1.88;;;17.50;26.40;;;;;;5114859;28;20150;-62
2021/01/08 01:35:24;;;;;;;1.67;1.58;;;17.50;26.40;;;;;;5115014;28;20240;-62
2021/01/08 01:37:51;;;;;;;1.63;1.52;;;17.50;26.40;;;;;;5114031;28;20162;-62
2021/01/08 01:40:17;;;;;;;2.55;1.75;;;17.50;26.40;;;;;;5114863;28;20160;-62
2021/01/08 01:42:43;;;;;;;1.70;1.60;;;17.50;26.40;;;;;;5114657;28;20509;-62
2021/01/08 01:45:09;;;;;;;1.43;1.33;;;17.50;26.40;;;;;;5096502;28;20454;-62
2021/01/08 01:47:34;;;;;;;1.90;1.80;;;17.50;26.40;;;;;;5114599;28;20172;-62
2021/01/08 01:50:00;;;;;;;1.40;1.30;;;17.50;26.40;;;;;;5114675;28;20943;-62
2021/01/08 01:52:26;;;;;;;1.55;1.45;;;17.50;26.40;;;;;;5113897;28;20538;-62
2021/01/08 01:54:56;;;;;;;1.73;1.47;;;17.50;26.40;;;;;;5114629;28;20165;-62
2021/01/08 01:57:22;;;;;;;1.25;1.15;;;17.50;26.40;;;;;;5114434;28;20157;-62
2021/01/08 01:59:47;;;;;;;2.33;1.73;;;17.50;26.40;;;;;;5114442;28;20504;-62
2021/01/08 02:02:22;;;;;;;1.47;1.37;;;17.50;26.40;;;;;;5114273;28;20165;-62
2021/01/08 02:04:49;;;;;;;1.33;1.23;;;17.50;26.40;;;;;;5114413;28;20216;-62
2021/01/08 02:07:14;;;;;;;1.73;1.20;;;17.50;26.40;;;;;;5113499;28;20220;-62
2021/01/08 02:09:41;;;;;;;1.60;1.50;;;17.50;26.40;;;;;;5114554;28;20157;-62
2021/01/08 02:12:08;;;;;;;1.90;1.80;;;17.50;26.40;;;;;;5113985;28;20251;-62
2021/01/08 02:14:35;;;;;;;1.20;1.10;;;17.50;26.40;;;;;;5114383;28;20159;-63
2021/01/08 02:17:01;;;;;;;1.63;1.45;;;17.50;26.40;;;;;;5113263;28;20161;-62
2021/01/08 02:19:32;;;;;;;2.05;1.80;;;17.50;26.40;;;;;;5096170;28;20183;-62
2021/01/08 02:22:38;;;;;;;1.35;1.25;;;17.40;26.30;;;;;;5113582;28;20240;-62
2021/01/08 02:25:27;;;;;;;1.52;1.42;;;17.40;26.70;;;;;;5096093;28;20212;-62
2021/01/08 02:28:05;;;;;;;1.48;1.38;;;17.40;26.30;;;;;;5114260;28;20156;-62
2021/01/08 02:30:41;;;;;;;1.75;1.65;;;17.50;26.40;;;;;;5114152;28;20229;-62
2021/01/08 02:33:08;;;;;;;1.17;1.10;;;17.50;26.40;;;;;;5113967;28;20473;-62
2021/01/08 02:35:34;;;;;;;1.75;1.65;;;17.50;26.90;;;;;;5113980;28;20206;-62
2021/01/08 02:38:01;;;;;;;1.50;1.40;;;17.50;26.40;;;;;;5113596;28;20161;-62
2021/01/08 02:40:27;;;;;;;1.65;1.55;;;17.40;26.30;;;;;;5095928;28;20252;-62
2021/01/08 02:43:15;;;;;;;1.92;1.80;;;17.50;26.40;;;;;;5113936;28;20236;-62
2021/01/08 02:45:41;;;;;;;1.60;1.50;;;17.40;26.30;;;;;;5113044;28;20636;-62
2021/01/08 02:48:07;;;;;;;1.60;1.50;;;17.40;26.30;;;;;;5113796;28;20164;-62
2021/01/08 02:50:33;;;;;;;1.58;1.48;;;17.40;26.30;;;;;;5113872;28;20426;-62
2021/01/08 02:53:07;;;;;;;1.23;1.13;;;17.40;26.30;;;;;;5113502;28;20535;-62
2021/01/08 02:55:35;;;;;;;1.60;1.40;;;17.50;26.40;;;;;;5114002;28;20757;-62
2021/01/08 02:58:03;;;;;;;1.48;1.38;;;17.40;26.30;;;;;;5113766;28;20145;-62
2021/01/08 03:00:30;;;;;;;1.50;1.40;;;17.40;26.30;;;;;;5113920;28;20146;-62
2021/01/08 03:02:57;;;;;;;1.10;1.10;;;17.40;26.30;;;;;;5113721;28;20186;-62
2021/01/08 03:05:28;;;;;;;1.38;1.27;;;17.40;26.30;;;;;;5113743;28;20674;-62
2021/01/08 03:07:55;;;;;;;1.40;1.27;;;17.40;26.30;;;;;;5113039;28;20308;-62
2021/01/08 03:10:23;;;;;;;1.33;1.20;;;17.40;26.30;;;;;;5113836;28;20616;-62
2021/01/08 03:13:01;;;;;;;1.00;1.00;;;17.40;26.30;;;;;;5113698;28;20211;-61
2021/01/08 03:15:27;;;;;;;1.60;1.50;;;17.40;26.30;;;;;;5095490;28;20169;-61
2021/01/08 03:17:53;;;;;;;1.37;1.27;;;17.50;26.40;;;;;;5113656;28;20165;-61
2021/01/08 03:20:18;;;;;;;1.50;1.40;;;17.50;26.40;;;;;;5113490;28;20176;-61
2021/01/08 03:22:44;;;;;;;1.70;1.60;;;17.40;26.30;;;;;;5113290;28;20168;-61
2021/01/08 03:25:10;;;;;;;1.30;1.20;;;17.40;26.30;;;;;;5095566;28;20204;-61
2021/01/08 03:27:36;;;;;;;1.30;1.20;;;17.40;26.30;;;;;;5113388;28;20181;-61
2021/01/08 03:30:04;;;;;;;1.90;1.80;;;17.40;26.30;;;;;;5116695;28;20604;-61
2021/01/08 03:32:30;;;;;;;1.50;1.40;;;17.40;26.30;;;;;;5116754;28;20447;-61
2021/01/08 03:34:55;;;;;;;1.60;1.50;;;17.40;26.30;;;;;;5117231;28;20180;-61
2021/01/08 03:37:21;;;;;;;1.67;1.57;;;17.50;26.40;;;;;;5116689;28;20164;-61
2021/01/08 03:39:46;;;;;;;1.43;1.33;;;17.40;26.30;;;;;;5117170;28;20550;-61
2021/01/08 03:42:12;;;;;;;1.20;1.10;;;17.40;26.30;;;;;;5116999;28;20165;-61
2021/01/08 03:44:38;;;;;;;1.47;1.37;;;17.40;26.30;;;;;;5117393;28;20555;-61
2021/01/08 03:47:03;;;;;;;1.30;1.20;;;17.40;26.30;;;;;;5116876;28;20165;-61
2021/01/08 03:49:29;;;;;;;1.20;1.10;;;17.40;26.30;;;;;;5116961;28;20504;-61
2021/01/08 03:51:54;;;;;;;1.67;1.57;;;17.50;26.40;;;;;;5116504;28;20601;-61
2021/01/08 03:54:20;;;;;;;1.40;1.30;;;17.50;26.40;;;;;;5117141;28;20192;-61
2021/01/08 03:56:46;;;;;;;1.40;1.30;;;17.50;26.40;;;;;;5098693;28;20184;-61
2021/01/08 03:59:11;;;;;;;2.40;1.30;;;17.50;26.40;;;;;;5116789;28;20157;-62
2021/01/08 04:01:37;;;;;;;1.67;1.57;;;17.50;26.40;;;;;;5098915;28;20169;-61
2021/01/08 04:04:03;;;;;;;1.47;1.37;;;17.50;26.40;;;;;;5116516;28;20188;-61
2021/01/08 04:06:28;;;;;;;1.60;1.50;;;17.50;26.40;;;;;;5116635;28;20185;-62
2021/01/08 04:08:55;;;;;;;1.70;1.60;;;17.50;26.40;;;;;;5097669;28;20715;-62
2021/01/08 04:11:21;;;;;;;1.40;1.30;;;17.50;26.40;;;;;;5116634;28;20572;-62
2021/01/08 04:13:46;;;;;;;1.30;1.20;;;17.50;26.40;;;;;;5116283;28;20173;-61
2021/01/08 04:16:12;;;;;;;1.70;1.53;;;17.50;26.40;;;;;;5116623;28;20248;-61
2021/01/08 04:18:38;;;;;;;1.53;1.43;;;17.50;26.40;;;;;;5116193;28;20153;-62
2021/01/08 04:21:04;;;;;;;1.50;1.40;;;17.50;26.40;;;;;;5116375;28;20201;-61
2021/01/08 04:23:29;;;;;;;1.53;1.43;;;17.50;26.40;;;;;;5097503;28;20174;-62
2021/01/08 04:25:55;;;;;;;1.40;1.27;;;17.50;26.40;;;;;;5098168;28;20569;-61
2021/01/08 04:28:21;;;;;;;1.33;1.23;;;17.50;26.40;;;;;;5116413;28;20157;-61
2021/01/08 04:30:46;;;;;;;1.53;1.43;;;17.50;26.40;;;;;;5116044;28;20620;-61
2021/01/08 04:33:12;;;;;;;2.10;1.80;;;17.50;26.40;;;;;;5097933;28;20230;-62
2021/01/08 04:35:37;;;;;;;1.50;1.40;;;17.50;26.40;;;;;;5116113;28;20161;-62
2021/01/08 04:38:03;;;;;;;1.40;1.30;;;17.50;26.40;;;;;;5115573;28;20543;-61
2021/01/08 04:40:29;;;;;;;1.70;1.40;;;17.50;26.40;;;;;;5115111;28;20185;-62
2021/01/08 04:42:55;;;;;;;1.47;1.20;;;17.50;26.40;;;;;;5097659;28;20672;-62
2021/01/08 04:45:20;;;;;;;1.37;1.10;;;17.50;26.40;;;;;;5115839;28;20237;-61
2021/01/08 04:47:47;;;;;;;1.30;1.20;;;17.50;26.40;;;;;;5115710;28;20486;-62
2021/01/08 04:50:14;;;;;;;1.50;1.40;;;17.50;26.40;;;;;;5116175;28;20166;-62
2021/01/08 04:52:39;;;;;;;1.10;1.00;;;17.50;26.40;;;;;;5115215;28;20635;-62
2021/01/08 04:55:06;;;;;;;1.20;1.10;;;17.50;26.40;;;;;;5115723;28;20218;-61
2021/01/08 04:57:35;;;;;;;1.50;1.40;;;17.50;26.40;;;;;;5097388;28;20169;-62
2021/01/08 05:00:02;;;;;;;0.90;0.90;;;17.50;26.40;;;;;;5115935;28;20153;-62
2021/01/08 05:02:28;;;;;;;1.50;1.40;;;17.60;26.40;;;;;;5115308;28;20165;-61
2021/01/08 05:04:54;;;;;;;1.33;1.17;;;17.60;26.40;;;;;;5115384;28;20298;-62
2021/01/08 05:07:20;;;;;;;1.57;1.47;;;17.60;26.40;;;;;;5114740;28;20471;-61
2021/01/08 05:09:46;;;;;;;1.23;1.13;;;17.60;26.40;;;;;;5115699;28;20213;-61
2021/01/08 05:12:11;;;;;;;1.50;1.40;;;17.60;26.40;;;;;;5115015;28;20834;-61
2021/01/08 05:14:37;;;;;;;2.03;1.60;;;17.60;26.50;;;;;;5097243;28;20685;-61
2021/01/08 05:17:03;;;;;;;1.30;1.20;;;17.60;26.40;;;;;;5115044;28;20172;-61
2021/01/08 05:19:28;;;;;;;1.20;1.10;;;17.60;26.40;;;;;;5115289;28;20244;-62
2021/01/08 05:21:54;;;;;;;1.60;1.50;;;17.60;26.40;;;;;;5096565;28;20166;-62
2021/01/08 05:24:29;;;;;;;1.30;1.20;;;17.60;26.50;;;;;;5115308;28;20189;-61
2021/01/08 05:26:55;;;;;;;1.67;1.58;;;17.60;26.40;;;;;;5114898;28;20149;-62
2021/01/08 05:29:21;;;;;;;1.40;1.30;;;17.60;26.40;;;;;;5114716;28;20160;-62
2021/01/08 05:31:48;;;;;;;1.20;1.10;;;17.60;26.50;;;;;;5114876;28;20199;-62
2021/01/08 05:34:22;;;;;;;1.38;1.27;;;17.60;26.40;;;;;;5096445;28;20398;-62
2021/01/08 05:36:49;;;;;;;1.60;1.50;;;17.60;26.40;;;;;;5097958;28;20636;-62
2021/01/08 05:39:20;;;;;;;1.17;1.08;;;17.60;26.40;;;;;;5096482;28;20200;-62
2021/01/08 05:41:45;;;;;;;1.20;1.10;;;17.60;26.40;;;;;;5114722;28;20171;-62
2021/01/08 05:44:15;;;;;;;1.37;1.27;;;17.60;26.40;;;;;;5114624;28;20196;-62
2021/01/08 05:46:41;;;;;;;1.30;1.20;;;17.60;26.40;;;;;;5114629;28;20584;-62
2021/01/08 05:49:08;;;;;;;1.08;0.98;;;17.60;26.40;;;;;;5114445;28;20181;-62
2021/01/08 05:51:39;;;;;;;1.52;1.42;;;17.60;26.50;;;;;;5114370;28;20244;-62
2021/01/08 05:54:05;;;;;;;1.35;1.25;;;17.60;26.40;;;;;;5114298;28;20160;-63
2021/01/08 05:56:36;;;;;;;1.23;1.00;;;17.60;26.40;;;;;;5114531;28;20647;-61
2021/01/08 05:59:06;;;;;;;1.10;1.00;;;17.70;26.50;;;;;;5114318;28;20160;-62
2021/01/08 06:01:33;;;;;;;1.55;1.30;;;17.70;26.50;;;;;;5114493;28;20510;-62
2021/01/08 06:04:01;;;;;;;1.30;1.20;;;17.70;26.50;;;;;;5130054;27;20196;-62
2021/01/08 06:06:38;;;;;;;1.10;1.00;;;17.70;26.50;;;;;;5114447;28;20184;-62
2021/01/08 06:09:04;;;;;;;1.42;1.33;;;17.70;26.50;;;;;;5113661;28;20216;-62
2021/01/08 06:11:31;;;;;;;1.33;1.23;;;17.70;26.50;;;;;;5114269;28;20196;-61
2021/01/08 06:14:06;;;;;;;1.40;1.30;;;17.70;26.50;;;;;;5113819;28;20169;-61
2021/01/08 06:16:48;;;;;;;2.25;2.05;;;17.70;26.50;;;;;;5114088;28;20153;-61
2021/01/08 06:19:14;;;;;;;1.35;1.25;;;17.70;26.50;;;;;;5113952;28;20517;-61
2021/01/08 06:21:45;;;;;;;1.17;1.08;;;17.70;26.50;;;;;;5113873;28;20224;-61
2021/01/08 06:24:29;;;;;;;1.27;1.17;;;17.70;26.50;;;;;;5113496;28;20184;-61
2021/01/08 06:26:55;;;;;;;1.25;1.15;;;17.70;26.50;;;;;;5113891;28;20149;-61
2021/01/08 06:29:22;;;;;;;1.30;1.20;;;17.70;26.50;;;;;;5114402;28;20506;-61
2021/01/08 06:31:53;;;;;;;1.25;0.95;;;17.70;26.50;;;;;;5113866;28;20156;-61
2021/01/08 06:34:23;;;;;;;1.33;1.23;;;17.70;26.50;;;;;;5114026;28;20643;-61
2021/01/08 06:37:10;;;;;;;1.45;1.35;;;17.70;26.50;;;;;;5113890;28;20173;-61
2021/01/08 06:39:44;;;;;;;1.50;1.40;;;17.70;26.50;;;;;;5114145;28;20185;-62
2021/01/08 06:42:10;;;;;;;1.73;1.63;;;17.70;26.40;;;;;;5113698;28;20257;-62
2021/01/08 06:44:36;;;;;;;1.88;1.33;;;17.70;26.40;;;;;;5113672;28;20189;-62
2021/01/08 06:47:04;;;;;;;1.70;1.60;;;17.70;26.50;;;;;;5113858;28;20239;-62
2021/01/08 06:49:31;;;;;;;1.63;1.52;;;17.70;26.40;;;;;;5113913;28;20154;-62
2021/01/08 06:51:59;;;;;;;1.35;1.25;;;17.70;26.40;;;;;;5113543;28;20612;-62
2021/01/08 06:54:27;;;;;;;1.58;1.48;;;17.70;26.40;;;;;;5113839;28;20203;-62
2021/01/08 06:56:58;;;;;;;1.60;1.50;;;17.70;26.40;;;;;;5113589;28;20157;-61
2021/01/08 06:59:30;;;;;;;1.70;1.60;;;17.70;26.40;;;;;;5113786;28;20157;-61
2021/01/08 07:02:16;;;;;;;1.50;1.40;;;17.70;26.40;;;;;;5113558;28;20596;-62
2021/01/08 07:04:43;;;;;;;1.40;1.30;;;17.70;26.30;;;;;;5116143;28;20245;-62
2021/01/08 07:07:23;;;;;;;0.95;0.90;;;17.70;26.30;;;;;;5117050;28;20196;-62
2021/01/08 07:09:50;;;;;;;2.10;1.20;;;17.70;26.30;;;;;;5117228;28;20254;-61
2021/01/08 07:12:16;;;;;;;1.20;1.10;;;17.70;26.30;;;;;;5117215;28;20173;-61
2021/01/08 07:14:42;;;;;;;1.43;1.33;;;17.70;26.30;;;;;;5117869;28;20508;-63
2021/01/08 07:17:12;;;;;;;1.00;0.90;;;17.70;26.30;;;;;;5099213;28;20399;-61
2021/01/08 07:19:42;;;;;;;1.20;1.10;;;17.70;26.30;;;;;;5117453;28;20421;-61
2021/01/08 07:22:16;;;;;;;1.60;1.50;;;17.70;26.30;;;;;;5098284;28;20185;-62
2021/01/08 07:24:43;;;;;;;1.23;1.13;;;17.80;26.30;;;;;;5117231;28;20246;-62
2021/01/08 07:27:16;;;;;;;1.40;1.30;;;17.80;26.30;;;;;;5117083;28;20180;-62
2021/01/08 07:29:54;;;;;;;1.48;1.25;;;17.80;26.30;;;;;;5117183;28;20183;-63
2021/01/08 07:32:53;;;;;;;1.27;1.17;;;17.80;26.40;;;;;;5117619;28;20145;-61
2021/01/08 07:35:27;;;;;;;1.40;1.30;;;17.80;26.30;;;;;;5117066;28;20589;-62
2021/01/08 07:38:03;;;;;;;1.27;1.17;;;17.80;26.20;;;;;;5098016;28;20168;-61
2021/01/08 07:40:48;;;;;;;1.52;1.42;;;17.80;26.20;;;;;;5116593;28;20167;-61
2021/01/08 07:43:15;;;;;;;1.17;1.08;;;17.80;26.20;;;;;;5116450;28;20600;-62
2021/01/08 07:45:54;;;;;;;1.25;1.15;;;17.80;26.70;;;;;;5098101;28;20189;-62
2021/01/08 07:48:40;;;;;;;1.20;1.10;;;17.80;26.20;;;;;;5098315;28;20153;-63
2021/01/08 07:51:08;;;;;;;1.20;1.10;;;17.80;26.10;;;;;;5116593;28;20241;-63
2021/01/08 07:53:47;;;;;;;1.50;1.40;;;17.90;26.20;;;;;;5116143;28;20164;-61
2021/01/08 07:56:23;;;;;;;1.17;1.08;;;17.80;26.10;;;;;;5116467;28;20639;-64
2021/01/08 07:58:59;;;;;;;1.60;1.50;;;17.90;26.10;;;;;;5116374;28;20160;-62
2021/01/08 08:01:25;;;;;;;1.20;1.10;;;17.90;26.10;;;;;;5108188;27;20182;-62
2021/01/08 08:04:02;;;;;;;1.30;1.20;;;17.90;26.00;;;;;;5106945;27;20219;-62
2021/01/08 08:06:39;;;;;;;1.52;1.20;;;17.90;26.00;;;;;;5115054;27;20497;-62
2021/01/08 08:09:11;;;;;;;1.50;1.40;;;17.90;26.00;;;;;;5135578;27;20212;-62
2021/01/08 08:11:37;;;;;;;1.20;1.10;;;17.90;26.00;;;;;;5083112;27;20170;-62
2021/01/08 08:14:05;;;;;;;1.30;1.20;;;17.90;25.90;;;;;;5114334;27;20214;-62
2021/01/08 08:16:31;;;;;;;1.10;1.00;;;17.90;25.90;;;;;;5112027;28;20180;-63
2021/01/08 08:18:57;;;;;;;0.90;0.90;;;17.90;25.90;;;;;;5112215;27;20178;-62
2021/01/08 08:21:23;;;;;;;2.13;1.73;;;17.90;25.90;;;;;;5116357;27;20188;-63
2021/01/08 08:23:56;;;;;;;0.90;0.90;;;17.90;25.80;;;;;;5104519;28;20181;-62
2021/01/08 08:26:23;;;;;;;1.10;1.00;;;17.90;25.80;;;;;;5106707;28;20170;-61
2021/01/08 08:28:58;;;;;;;1.50;1.40;;;17.90;25.90;;;;;;5113262;28;20537;-61
2021/01/08 08:31:27;;;;;;;1.20;1.10;;;18.00;25.90;;;;;;5103462;28;20194;-61
2021/01/08 08:33:56;;;;;;;1.13;1.13;;;18.00;25.90;;;;;;5100074;27;20204;-62
2021/01/08 08:36:25;;;;;;;1.50;1.40;;;18.00;25.90;;;;;;5078128;28;20267;-62
2021/01/08 08:39:07;;;;;;;1.13;1.02;;;18.00;25.80;;;;;;5114574;28;20272;-63
2021/01/08 08:41:37;;;;;;;1.45;1.35;;;18.00;25.80;;;;;;5113795;28;20252;-63
2021/01/08 08:44:10;;;;;;;1.38;1.27;;;18.00;25.80;;;;;;5113611;28;20201;-62
2021/01/08 08:46:49;;;;;;;1.17;1.08;;;18.00;25.70;;;;;;5087752;28;20188;-62
2021/01/08 08:49:17;;;;;;;1.52;1.42;;;18.00;25.70;;;;;;5097053;28;20164;-62
2021/01/08 08:51:44;;;;;;;1.30;1.20;;;18.00;25.70;;;;;;5093695;28;20177;-63
2021/01/08 08:54:11;;;;;;;1.17;1.08;;;18.00;25.70;;;;;;5095279;28;20208;-62
2021/01/08 08:56:46;;;;;;;1.35;1.25;;;18.00;25.70;;;;;;5112889;28;20552;-61
2021/01/08 08:59:11;;;;;;;1.35;1.25;;;18.00;25.70;;;;;;5114945;28;20163;-62
2021/01/08 09:01:38;;;;;;;1.07;0.90;;;18.00;25.70;;;;;;5113621;28;20165;-62
2021/01/08 09:04:05;;;;;;;1.67;1.38;;;18.00;25.70;;;;;;5101733;28;20223;-62
2021/01/08 09:06:35;;;;;;;2.25;1.38;;;18.10;25.70;;;;;;5101731;28;20165;-63
2021/01/08 09:09:14;;;;;;;1.40;1.20;;;18.10;25.70;;;;;;5093546;28;20222;-61
2021/01/08 09:11:49;;;;;;;1.20;1.10;;;18.10;25.70;;;;;;5070377;28;20163;-60
2021/01/08 09:14:18;;;;;;;1.70;1.10;;;18.10;25.70;;;;;;5069988;28;20188;-61
2021/01/08 09:16:49;;;;;;;1.40;1.30;;;18.10;25.70;;;;;;5071447;28;20178;-62
2021/01/08 09:19:30;;;;;;;1.20;1.10;;;18.10;25.60;;;;;;5064019;28;20258;-62
2021/01/08 09:21:57;;;;;;;1.45;1.25;;;18.10;25.60;;;;;;5070636;28;20162;-61
2021/01/08 09:24:31;;;;;;;1.25;1.15;;;18.10;25.60;;;;;;5073017;28;20198;-61
2021/01/08 09:26:59;;;;;;;1.48;1.38;;;18.10;25.60;;;;;;5068526;28;20165;-61
2021/01/08 09:29:33;;;;;;;0.90;0.90;;;18.10;26.10;;;;;;5103505;28;20191;-61
2021/01/08 09:32:01;;;;;;;1.40;1.30;;;18.10;25.50;;;;;;5064675;28;20171;-61
2021/01/08 09:34:28;;;;;;;1.55;1.10;;;18.20;25.60;;;;;;5067996;28;20178;-61
2021/01/08 09:36:56;;;;;;;1.27;1.17;;;18.20;25.60;;;;;;5058572;28;20182;-61
2021/01/08 09:39:23;;;;;;;1.13;1.10;;;18.20;25.50;;;;;;5080698;28;20177;-60
2021/01/08 09:42:00;;;;;;;1.10;1.00;;;18.30;25.60;;;;;;5064363;28;20321;-61
2021/01/08 09:44:39;;;;;;;1.38;1.25;;;18.20;25.50;;;;;;5072226;28;20192;-62
2021/01/08 09:47:08;;;;;;;0.98;0.93;;;18.20;25.50;;;;;;5071964;28;20174;-62
2021/01/08 09:49:42;;;;;;;1.70;1.20;;;18.20;25.50;;;;;;5093487;28;20177;-61
2021/01/08 09:52:10;;;;;;;1.25;1.15;;;18.20;25.40;;;;;;5065569;28;20241;-61
2021/01/08 09:54:46;;;;;;;1.10;1.00;;;18.20;25.40;;;;;;5068795;28;20170;-62
2021/01/08 09:57:34;;;;;;;1.33;1.10;;;18.20;25.40;;;;;;5057157;28;20548;-61
2021/01/08 10:00:05;;;;;;;1.27;1.17;;;18.20;25.40;;;;;;5073116;28;20522;-62
2021/01/08 10:02:37;;;;;;;1.80;1.23;;;18.20;25.30;;;;;;5063502;28;20699;-60
2021/01/08 10:05:19;;;;;;;1.50;1.40;;;18.20;25.30;;;;;;5059475;28;20194;-61
2021/01/08 10:07:46;;;;;;;1.30;1.17;;;18.30;25.40;;;;;;5055886;28;20669;-61
2021/01/08 10:10:37;;;;;;;1.38;1.27;;;18.30;25.30;;;;;;5110459;28;20208;-61
2021/01/08 10:13:07;;;;;;;1.25;1.15;;;18.30;25.30;;;;;;5093896;28;20183;-61
2021/01/08 10:15:38;;;;;;;1.30;1.20;;;18.30;25.30;;;;;;5104042;28;20211;-62
2021/01/08 10:18:28;;;;;;;1.30;1.20;;;18.30;25.30;;;;;;5127258;27;20243;-62
2021/01/08 10:20:56;;;;;;;1.55;1.45;;;18.30;25.30;;;;;;5115774;27;20189;-62
2021/01/08 10:23:26;;;;;;;1.45;1.35;;;18.30;25.20;;;;;;5111702;28;20165;-62
2021/01/08 10:25:53;;;;;;;1.30;1.20;;;18.30;25.20;;;;;;5101761;28;20197;-60
2021/01/08 10:28:24;;;;;;;1.20;1.10;;;18.30;25.20;;;;;;5113299;28;20210;-60
2021/01/08 10:30:52;;;;;;;1.45;1.30;;;18.30;25.20;;;;;;5100878;28;20176;-60
2021/01/08 10:33:18;;;;;;;1.00;0.93;;;18.30;25.20;;;;;;5113131;28;20192;-61
2021/01/08 10:35:48;;;;;;;1.00;0.90;;;18.30;25.20;;;;;;5093286;28;20636;-59
2021/01/08 10:38:14;;;;;;;1.38;1.27;;;18.30;25.20;;;;;;5113008;28;20471;-60
2021/01/08 10:40:40;;;;;;;1.20;1.10;;;18.30;25.20;;;;;;5112955;28;20656;-61
2021/01/08 10:43:06;;;;;;;1.40;1.30;;;18.30;25.20;;;;;;5117200;28;20163;-60
2021/01/08 10:45:32;;;;;;;1.30;1.17;;;18.30;25.20;;;;;;5111575;28;20502;-60
2021/01/08 10:47:58;;;;;;;1.27;1.13;;;18.30;25.20;;;;;;5113164;28;20865;-60
2021/01/08 10:50:26;;;;;;;2.20;1.07;;;18.40;25.20;;;;;;5115514;27;20181;-60
2021/01/08 10:52:52;;;;;;;1.05;0.95;;;18.40;25.20;;;;;;5061467;28;20228;-60
2021/01/08 10:55:17;;;;;;;1.10;1.00;;;18.40;25.10;;;;;;5101072;28;20335;-60
2021/01/08 10:57:43;;;;;;;1.00;0.97;;;18.40;25.10;;;;;;5110561;28;20621;-60
2021/01/08 11:00:11;;;;;;;1.27;1.17;;;18.40;25.00;;;;;;5113077;28;20166;-61
2021/01/08 11:02:37;;;;;;;1.25;1.00;;;18.50;25.00;;;;;;5113075;28;20173;-61
2021/01/08 11:05:06;;;;;;;1.23;1.10;;;18.50;25.00;;;;;;5083778;28;20211;-61
2021/01/08 11:07:33;;;;;;;1.60;1.33;;;18.50;24.90;;;;;;5115276;28;20179;-61
2021/01/08 11:10:00;;;;;;;1.45;1.20;;;18.60;24.90;;;;;;5115223;28;20198;-61
2021/01/08 11:12:26;;;;;;;1.10;0.90;;;18.60;24.80;;;;;;5110797;28;20205;-61
2021/01/08 11:14:53;;;;;;;1.35;1.25;;;18.60;24.70;;;;;;5106448;28;20177;-60
2021/01/08 11:17:19;;;;;;;1.20;1.10;;;18.70;24.70;;;;;;5095988;28;20166;-61
2021/01/08 11:19:44;;;;;;;3.17;1.30;;;18.70;24.60;;;;;;5096502;28;20207;-61
2021/01/08 11:22:10;;;;;;;1.17;1.07;;;18.70;24.60;;;;;;5092039;28;20176;-61
2021/01/08 11:24:37;;;;;;;1.30;1.20;;;18.70;24.50;;;;;;5110268;28;20271;-60
2021/01/08 11:27:04;;;;;;;1.23;1.13;;;18.70;24.50;;;;;;5096241;28;20248;-60
2021/01/08 11:29:30;;;;;;;1.10;1.00;;;18.70;24.50;;;;;;5099782;28;20166;-60
2021/01/08 11:31:56;;;;;;;1.50;1.40;;;18.70;24.50;;;;;;5109230;28;20248;-60
2021/01/08 11:34:21;;;;;;;1.47;1.37;;;18.70;24.50;;;;;;5108687;28;20447;-60
2021/01/08 11:36:47;;;;;;;1.13;1.03;;;18.70;25.00;;;;;;5090932;28;20661;-61
2021/01/08 11:39:14;;;;;;;0.80;0.77;;;18.80;24.40;;;;;;5094962;28;20173;-61
2021/01/08 11:41:40;;;;;;;1.20;1.10;;;18.80;23.90;;;;;;5106553;28;20251;-60
2021/01/08 11:44:06;;;;;;;1.53;1.27;;;18.90;24.40;;;;;;5101018;27;20284;-59
2021/01/08 11:46:32;;;;;;;1.67;1.20;;;18.90;24.30;;;;;;5106075;27;20974;-60
2021/01/08 11:48:58;;;;;;;3.03;0.80;;;18.90;24.20;;;;;;5097211;28;20278;-61
2021/01/08 11:51:24;;;;;;;1.37;1.23;;;18.90;24.20;;;;;;5093241;28;20778;-60
2021/01/08 11:53:52;;;;;;;1.37;1.17;;;18.90;24.20;;;;;;5114966;28;20161;-60
2021/01/08 11:56:25;;;;;;;1.45;1.25;;;18.90;24.10;;;;;;5099748;28;20442;-61
2021/01/08 11:58:51;;;;;;;1.30;1.20;;;18.90;24.70;;;;;;5108733;27;20186;-61
2021/01/08 12:01:16;;;;;;;1.27;1.00;;;18.90;24.20;;;;;;5104024;27;20252;-61
2021/01/08 12:03:42;;;;;;;1.20;1.10;;;18.90;24.20;;;;;;5115082;28;20175;-61
2021/01/08 12:06:09;;;;;;;1.50;1.23;;;18.80;24.20;;;;;;5105556;28;20169;-62
2021/01/08 12:08:36;;;;;;;1.33;1.23;;;18.90;24.20;;;;;;5093415;28;20734;-61
2021/01/08 12:11:03;;;;;;;1.40;1.30;;;18.90;24.30;;;;;;5068047;28;20208;-62
2021/01/08 12:13:29;;;;;;;1.40;1.30;;;18.80;24.20;;;;;;5079267;28;20208;-61
2021/01/08 12:15:55;;;;;;;1.50;1.33;;;18.80;24.30;;;;;;5060486;28;20211;-61
2021/01/08 12:18:21;;;;;;;1.40;1.30;;;18.80;24.30;;;;;;5093663;28;20489;-62
2021/01/08 12:20:47;;;;;;;1.10;1.00;;;18.80;24.30;;;;;;5068415;28;20526;-60
2021/01/08 12:23:13;;;;;;;1.05;0.90;;;18.80;24.20;;;;;;5090751;28;20404;-60
2021/01/08 12:25:40;;;;;;;1.80;1.70;;;18.80;24.30;;;;;;5057251;28;20202;-60
2021/01/08 12:28:07;;;;;;;1.50;1.27;;;18.80;24.30;;;;;;5063514;28;20266;-61
2021/01/08 12:30:33;;;;;;;1.45;1.35;;;19.80;25.10;;;;;;5055527;28;20179;-60
2021/01/08 12:33:00;;;;;;;1.30;1.20;;;18.80;24.40;;;;;;5072360;28;20172;-61
2021/01/08 12:35:26;;;;;;;1.10;1.00;;;18.80;24.40;;;;;;5082882;28;20276;-61
2021/01/08 12:37:52;;;;;;;1.30;1.10;;;18.80;24.50;;;;;;5076316;28;20689;-61
2021/01/08 12:40:19;;;;;;;1.45;1.30;;;18.70;24.40;;;;;;5075285;28;20425;-62
2021/01/08 12:42:47;;;;;;;2.85;1.00;;;18.70;24.50;;;;;;5075590;28;20205;-61
2021/01/08 12:45:14;;;;;;;2.00;1.10;;;18.70;24.50;;;;;;5070254;28;20289;-62
2021/01/08 12:47:40;;;;;;;0.95;0.95;;;18.70;24.50;;;;;;5082234;28;20208;-60
2021/01/08 12:50:07;;;;;;;1.00;0.90;;;18.70;24.60;;;;;;5063505;28;20174;-61
2021/01/08 12:52:32;;;;;;;1.40;1.13;;;18.70;24.60;;;;;;5082748;28;20165;-61
2021/01/08 12:54:58;;;;;;;1.40;1.20;;;18.60;24.60;;;;;;5079444;28;20564;-61